Hickory Grove, Mississippi
Current Conditions -  °F | °C
As of 1:35 PM on Thursday 30 Oct 2014 (Local Time) from KSTF Reporting Station
Clear Clear  
Wind Chill: 68°   Ceiling: Unl
Heat Index: 68°   Visibility: 10mi
Dew Point: 36°   Wind: 3mph
Humidity: 30%   Direction: 10°N
Pressure: 30.09"   Gusts: NA
Location:  33.4256°N, 88.8438°W
Report Text: KSTF 301835Z AUTO 01003KT 10SM CLR 20/02 A3009 RMK AO2
Loading
Personal Weather Stations






























Interactive Weather Map
Tropical Storm Tracking
New forecast layout! Learn more

10-Day Weather Forecast

Advertisements
Track Severe Weather on mobile